createdAt,value
2022-09-26T00:00:14.222Z,8.75
2022-09-26T00:01:14.236Z,8.70
2022-09-26T00:02:14.249Z,8.67
2022-09-26T00:03:14.187Z,8.67
2022-09-26T00:04:14.175Z,8.68
2022-09-26T00:05:14.165Z,8.64
2022-09-26T00:06:14.157Z,8.64
2022-09-26T00:07:14.140Z,8.63
2022-09-26T00:08:14.132Z,8.58
2022-09-26T00:09:14.197Z,8.63
2022-09-26T00:10:14.112Z,8.65
2022-09-26T00:11:14.097Z,8.61
2022-09-26T00:12:14.110Z,8.61
2022-09-26T00:13:14.074Z,8.57
2022-09-26T00:14:14.063Z,8.50
2022-09-26T00:15:14.050Z,8.55
2022-09-26T00:16:14.121Z,8.55
2022-09-26T00:17:14.110Z,8.55
2022-09-26T00:18:14.019Z,8.60
2022-09-26T00:19:14.136Z,8.63
2022-09-26T00:20:13.997Z,8.63
2022-09-26T00:21:13.984Z,8.61
2022-09-26T00:22:13.973Z,8.63
2022-09-26T00:23:13.961Z,8.60
2022-09-26T00:24:13.957Z,8.61
2022-09-26T00:25:13.943Z,8.63
2022-09-26T00:26:13.928Z,8.67
2022-09-26T00:27:13.927Z,8.70
2022-09-26T00:28:13.930Z,8.70
2022-09-26T00:29:14.092Z,8.67
2022-09-26T00:30:13.890Z,8.68
2022-09-26T00:31:13.981Z,8.65
2022-09-26T00:32:13.863Z,8.67
2022-09-26T00:33:13.847Z,8.70
2022-09-26T00:34:13.837Z,8.73
2022-09-26T00:35:13.827Z,8.75
2022-09-26T00:36:13.816Z,8.70
2022-09-26T00:37:13.805Z,8.73
2022-09-26T00:38:13.793Z,8.71
2022-09-26T00:39:13.873Z,8.71
2022-09-26T00:40:13.838Z,8.73
2022-09-26T00:41:13.758Z,8.75
2022-09-26T00:42:13.760Z,8.78
2022-09-26T00:43:13.734Z,8.78
2022-09-26T00:44:13.751Z,8.82
2022-09-26T00:45:13.717Z,8.82
2022-09-26T00:46:13.787Z,8.85
2022-09-26T00:47:13.692Z,8.86
2022-09-26T00:48:13.681Z,8.86
2022-09-26T00:49:13.770Z,8.88
2022-09-26T00:50:13.661Z,8.91
2022-09-26T00:51:13.649Z,8.89
2022-09-26T00:52:13.639Z,8.94
2022-09-26T00:53:13.623Z,8.94
2022-09-26T00:54:13.615Z,8.96
2022-09-26T00:55:13.600Z,9.00
2022-09-26T00:56:13.592Z,9.06
2022-09-26T00:57:13.578Z,9.13
2022-09-26T00:58:13.571Z,9.15
2022-09-26T00:59:13.675Z,9.17
2022-09-26T01:00:13.581Z,9.22
2022-09-26T01:01:13.712Z,9.22
2022-09-26T01:02:13.674Z,9.23
2022-09-26T01:03:13.514Z,9.23
2022-09-26T01:04:13.504Z,9.24
2022-09-26T01:05:13.492Z,9.26
2022-09-26T01:06:13.482Z,9.27
2022-09-26T01:07:13.486Z,9.31
2022-09-26T01:08:13.457Z,9.31
2022-09-26T01:09:13.590Z,9.31
2022-09-26T01:10:13.432Z,9.32
2022-09-26T01:11:16.783Z,9.32
2022-09-26T01:12:13.416Z,9.34
2022-09-26T01:13:13.405Z,9.34
2022-09-26T01:14:13.392Z,9.38
2022-09-26T01:15:13.379Z,9.34
2022-09-26T01:16:13.430Z,9.38
2022-09-26T01:17:13.354Z,9.40
2022-09-26T01:18:13.344Z,9.40
2022-09-26T01:19:13.492Z,9.44
2022-09-26T01:20:13.322Z,9.45
2022-09-26T01:21:13.310Z,9.45
2022-09-26T01:22:13.299Z,9.45
2022-09-26T01:23:13.286Z,9.45
2022-09-26T01:24:13.280Z,9.48
2022-09-26T01:25:13.275Z,9.44
2022-09-26T01:26:13.255Z,9.44
2022-09-26T01:27:13.244Z,9.41
2022-09-26T01:28:13.235Z,9.44
2022-09-26T01:29:13.338Z,9.44
2022-09-26T01:30:13.211Z,9.48
2022-09-26T01:31:13.308Z,9.48
2022-09-26T01:32:13.212Z,9.50
2022-09-26T01:33:13.175Z,9.52
2022-09-26T01:34:13.169Z,9.55
2022-09-26T01:35:13.151Z,9.53
2022-09-26T01:36:13.143Z,9.58
2022-09-26T01:37:13.130Z,9.60
2022-09-26T01:38:13.125Z,9.62
2022-09-26T01:39:13.351Z,9.65
2022-09-26T01:40:13.158Z,9.67
2022-09-26T01:41:13.085Z,9.68
2022-09-26T01:42:13.074Z,9.68
2022-09-26T01:43:13.064Z,9.70
2022-09-26T01:44:13.054Z,9.71
2022-09-26T01:45:13.043Z,9.68
2022-09-26T01:46:13.115Z,9.71
2022-09-26T01:47:13.018Z,9.71
2022-09-26T01:48:13.120Z,9.73
2022-09-26T01:49:13.088Z,9.74
2022-09-26T01:50:12.988Z,9.73
2022-09-26T01:51:12.979Z,9.74
2022-09-26T01:52:12.965Z,9.74
2022-09-26T01:53:12.952Z,9.74
2022-09-26T01:54:12.945Z,9.73
2022-09-26T01:55:12.931Z,9.74
2022-09-26T01:56:12.921Z,9.77
2022-09-26T01:57:12.908Z,9.80
2022-09-26T01:58:12.895Z,9.80
2022-09-26T01:59:12.971Z,9.77
2022-09-26T02:00:12.875Z,9.81
2022-09-26T02:01:12.991Z,9.78
2022-09-26T02:02:12.902Z,9.81
2022-09-26T02:03:12.840Z,9.83
2022-09-26T02:04:12.856Z,9.83
2022-09-26T02:05:12.818Z,9.83
2022-09-26T02:06:12.810Z,9.85
2022-09-26T02:07:12.795Z,9.85
2022-09-26T02:08:12.786Z,9.88
2022-09-26T02:09:12.771Z,9.85
2022-09-26T02:10:12.764Z,9.89
2022-09-26T02:11:12.751Z,9.88
2022-09-26T02:12:12.744Z,9.91
2022-09-26T02:13:12.732Z,9.91
2022-09-26T02:14:12.720Z,9.86
2022-09-26T02:15:12.706Z,9.89
2022-09-26T02:16:12.778Z,9.88
2022-09-26T02:17:12.686Z,9.89
2022-09-26T02:18:12.671Z,9.89
2022-09-26T02:19:12.664Z,9.91
2022-09-26T02:20:12.775Z,9.86
2022-09-26T02:21:12.742Z,9.88
2022-09-26T02:22:12.731Z,9.85
2022-09-26T02:23:12.617Z,9.88
2022-09-26T02:24:12.607Z,9.91
2022-09-26T02:25:12.598Z,9.91
2022-09-26T02:26:12.586Z,9.93
2022-09-26T02:27:12.870Z,9.93
2022-09-26T02:28:12.562Z,9.92
2022-09-26T02:29:12.601Z,9.91
2022-09-26T02:30:12.542Z,9.91
2022-09-26T02:31:12.527Z,9.91
2022-09-26T02:32:12.663Z,9.88
2022-09-26T02:33:12.506Z,9.88
2022-09-26T02:34:12.502Z,9.85
2022-09-26T02:35:12.482Z,9.81
2022-09-26T02:36:12.499Z,9.78
2022-09-26T02:37:12.460Z,9.81
2022-09-26T02:38:12.467Z,9.80
2022-09-26T02:39:12.541Z,9.81
2022-09-26T02:40:12.533Z,9.81
2022-09-26T02:41:12.416Z,9.85
2022-09-26T02:42:12.405Z,9.86
2022-09-26T02:43:12.394Z,9.89
2022-09-26T02:44:12.386Z,9.88
2022-09-26T02:45:12.371Z,9.88
2022-09-26T02:46:12.440Z,9.89
2022-09-26T02:47:12.350Z,9.92
2022-09-26T02:48:12.341Z,9.92
2022-09-26T02:49:12.427Z,9.91
2022-09-26T02:50:12.320Z,9.93
2022-09-26T02:51:12.303Z,9.95
2022-09-26T02:52:12.402Z,9.92
2022-09-26T02:53:12.283Z,9.92
2022-09-26T02:54:12.273Z,9.93
2022-09-26T02:55:12.262Z,9.89
2022-09-26T02:56:12.252Z,9.91
2022-09-26T02:57:12.237Z,9.93
2022-09-26T02:58:12.228Z,9.91
2022-09-26T02:59:12.305Z,9.91
2022-09-26T03:00:12.308Z,9.89
2022-09-26T03:01:12.266Z,9.89
2022-09-26T03:02:12.183Z,9.86
2022-09-26T03:03:12.175Z,9.83
2022-09-26T03:04:12.187Z,9.83
2022-09-26T03:05:12.256Z,9.80
2022-09-26T03:06:12.142Z,9.80
2022-09-26T03:07:12.130Z,9.75
2022-09-26T03:08:12.190Z,9.81
2022-09-26T03:09:12.201Z,9.83
2022-09-26T03:10:12.195Z,9.81
2022-09-26T03:11:12.083Z,9.78
2022-09-26T03:12:12.073Z,9.73
2022-09-26T03:13:12.062Z,9.75
2022-09-26T03:14:12.153Z,9.70
2022-09-26T03:15:12.191Z,9.68
2022-09-26T03:16:12.070Z,9.63
2022-09-26T03:17:12.020Z,9.67
2022-09-26T03:18:12.103Z,9.67
2022-09-26T03:19:12.233Z,9.70
2022-09-26T03:20:12.131Z,9.67
2022-09-26T03:21:12.173Z,9.71
2022-09-26T03:22:11.960Z,9.73
2022-09-26T03:23:12.051Z,9.74
2022-09-26T03:24:11.959Z,9.73
2022-09-26T03:25:11.976Z,9.70
2022-09-26T03:26:12.115Z,9.71
2022-09-26T03:27:11.912Z,9.73
2022-09-26T03:28:11.899Z,9.74
2022-09-26T03:29:11.945Z,9.73
2022-09-26T03:30:11.976Z,9.73
2022-09-26T03:31:11.862Z,9.71
2022-09-26T03:32:12.122Z,9.73
2022-09-26T03:33:12.090Z,9.73
2022-09-26T03:34:11.827Z,9.68
2022-09-26T03:35:11.815Z,9.68
2022-09-26T03:36:11.804Z,9.71
2022-09-26T03:37:11.797Z,9.70
2022-09-26T03:38:14.381Z,9.71
2022-09-26T03:39:11.860Z,9.68
2022-09-26T03:40:11.847Z,9.70
2022-09-26T03:41:11.749Z,9.70
2022-09-26T03:42:11.739Z,9.73
2022-09-26T03:43:11.727Z,9.70
2022-09-26T03:44:11.714Z,9.68
2022-09-26T03:45:11.703Z,9.71
2022-09-26T03:46:11.828Z,9.70
2022-09-26T03:47:11.683Z,9.71
2022-09-26T03:48:11.670Z,9.71
2022-09-26T03:49:11.734Z,9.73
2022-09-26T03:50:11.655Z,9.68
2022-09-26T03:51:11.637Z,9.70
2022-09-26T03:52:11.623Z,9.68
2022-09-26T03:53:11.617Z,9.70
2022-09-26T03:54:11.602Z,9.70
2022-09-26T03:55:11.598Z,9.73
2022-09-26T03:56:11.687Z,9.75
2022-09-26T03:57:11.573Z,9.74
2022-09-26T03:58:11.734Z,9.74
2022-09-26T03:59:11.671Z,9.74
2022-09-26T04:00:14.562Z,9.74
2022-09-26T04:01:11.980Z,9.77
2022-09-26T04:02:11.750Z,9.77
2022-09-26T04:03:11.612Z,9.80
2022-09-26T04:04:11.571Z,9.77
2022-09-26T04:05:11.477Z,9.77
2022-09-26T04:06:11.471Z,9.78
2022-09-26T04:07:11.455Z,9.83
2022-09-26T04:08:11.447Z,9.86
2022-09-26T04:09:16.012Z,9.86
2022-09-26T04:10:11.477Z,9.89
2022-09-26T04:11:11.415Z,9.91
2022-09-26T04:12:11.429Z,9.92
2022-09-26T04:13:19.860Z,9.91
2022-09-26T04:14:11.383Z,9.92
2022-09-26T04:15:11.370Z,9.91
2022-09-26T04:16:11.411Z,9.92
2022-09-26T04:17:11.343Z,9.91
2022-09-26T04:18:11.335Z,9.93
2022-09-26T04:19:11.325Z,9.98
2022-09-26T04:20:11.315Z,10.01
2022-09-26T04:21:11.303Z,10.02
2022-09-26T04:22:11.294Z,10.02
2022-09-26T04:23:11.280Z,10.01
2022-09-26T04:24:11.270Z,10.04
2022-09-26T04:25:11.312Z,10.04
2022-09-26T04:26:11.249Z,10.06
2022-09-26T04:27:11.484Z,10.06
2022-09-26T04:28:11.257Z,10.07
2022-09-26T04:29:11.336Z,10.04
2022-09-26T04:30:11.321Z,10.06
2022-09-26T04:31:11.254Z,10.04
2022-09-26T04:32:11.180Z,10.02
2022-09-26T04:33:11.169Z,10.06
2022-09-26T04:34:11.159Z,10.06
2022-09-26T04:35:11.447Z,10.07
2022-09-26T04:36:11.136Z,10.06
2022-09-26T04:37:11.124Z,10.11
2022-09-26T04:38:11.167Z,10.11
2022-09-26T04:39:11.099Z,10.13
2022-09-26T04:40:11.593Z,10.13
2022-09-26T04:41:11.081Z,10.13
2022-09-26T04:42:11.071Z,10.18
2022-09-26T04:43:11.059Z,10.20
2022-09-26T04:44:11.070Z,10.24
2022-09-26T04:45:11.036Z,10.32
2022-09-26T04:46:11.136Z,10.35
2022-09-26T04:47:11.018Z,10.38
2022-09-26T04:48:11.002Z,10.38
2022-09-26T04:49:11.010Z,10.35
2022-09-26T04:50:10.979Z,10.38
2022-09-26T04:51:10.968Z,10.39
2022-09-26T04:52:10.957Z,10.42
2022-09-26T04:53:10.944Z,10.42
2022-09-26T04:54:11.069Z,10.42
2022-09-26T04:55:10.924Z,10.42
2022-09-26T04:56:10.917Z,10.42
2022-09-26T04:57:12.987Z,10.38
2022-09-26T04:58:10.892Z,10.42
2022-09-26T04:59:10.877Z,10.38
2022-09-26T05:00:10.898Z,10.39
2022-09-26T05:01:10.959Z,10.38
2022-09-26T05:02:10.949Z,10.44
2022-09-26T05:03:10.834Z,10.46
2022-09-26T05:04:10.831Z,10.51
2022-09-26T05:05:10.811Z,10.47
2022-09-26T05:06:10.804Z,10.52
2022-09-26T05:07:10.802Z,10.46
2022-09-26T05:08:10.780Z,10.47
2022-09-26T05:09:10.768Z,10.52
2022-09-26T05:10:10.758Z,10.55
2022-09-26T05:11:10.745Z,10.54
2022-09-26T05:12:10.736Z,10.58
2022-09-26T05:13:10.725Z,10.55
2022-09-26T05:14:10.711Z,10.57
2022-09-26T05:15:10.702Z,10.54
2022-09-26T05:16:10.765Z,10.51
2022-09-26T05:17:10.677Z,10.51
2022-09-26T05:18:10.671Z,10.54
2022-09-26T05:19:10.656Z,10.54
2022-09-26T05:20:10.649Z,10.54
2022-09-26T05:21:10.634Z,10.54
2022-09-26T05:22:10.677Z,10.57
2022-09-26T05:23:10.610Z,10.55
2022-09-26T05:24:10.604Z,10.55
2022-09-26T05:25:10.838Z,10.57
2022-09-26T05:26:10.578Z,10.60
2022-09-26T05:27:10.569Z,10.63
2022-09-26T05:28:10.719Z,10.65
2022-09-26T05:29:10.693Z,10.65
2022-09-26T05:30:10.534Z,10.70
2022-09-26T05:31:10.534Z,10.68
2022-09-26T05:32:10.535Z,10.72
2022-09-26T05:33:10.497Z,10.70
2022-09-26T05:34:13.279Z,10.73
2022-09-26T05:35:10.474Z,10.73
2022-09-26T05:36:10.465Z,10.75
2022-09-26T05:37:10.453Z,10.75
2022-09-26T05:38:10.443Z,10.78
2022-09-26T05:39:10.431Z,10.78
2022-09-26T05:40:10.620Z,10.80
2022-09-26T05:41:10.407Z,10.78
2022-09-26T05:42:10.399Z,10.78
2022-09-26T05:43:10.396Z,10.75
2022-09-26T05:44:10.374Z,10.73
2022-09-26T05:45:10.362Z,10.76
2022-09-26T05:46:10.353Z,10.80
2022-09-26T05:47:10.364Z,10.78
2022-09-26T05:48:10.352Z,10.75
2022-09-26T05:49:10.314Z,10.75
2022-09-26T05:50:10.384Z,10.75
2022-09-26T05:51:10.293Z,10.73
2022-09-26T05:52:10.284Z,10.75
2022-09-26T05:53:10.274Z,10.75
2022-09-26T05:54:10.260Z,10.72
2022-09-26T05:55:10.249Z,10.72
2022-09-26T05:56:13.696Z,10.70
2022-09-26T05:57:10.223Z,10.73
2022-09-26T05:58:10.213Z,10.70
2022-09-26T05:59:10.308Z,10.69
2022-09-26T06:00:10.197Z,10.69
2022-09-26T06:01:10.193Z,10.68
2022-09-26T06:02:10.253Z,10.69
2022-09-26T06:03:10.155Z,10.68
2022-09-26T06:04:10.171Z,10.68
2022-09-26T06:05:10.137Z,10.70
2022-09-26T06:06:10.124Z,10.66
2022-09-26T06:07:10.260Z,10.69
2022-09-26T06:08:10.102Z,10.70
2022-09-26T06:09:10.164Z,10.69
2022-09-26T06:10:10.078Z,10.68
2022-09-26T06:11:10.090Z,10.72
2022-09-26T06:12:10.055Z,10.70
2022-09-26T06:13:10.041Z,10.73
2022-09-26T06:14:10.032Z,10.73
2022-09-26T06:15:10.022Z,10.70
2022-09-26T06:16:10.106Z,10.75
2022-09-26T06:17:09.997Z,10.73
2022-09-26T06:18:10.059Z,10.70
2022-09-26T06:19:09.974Z,10.73
2022-09-26T06:20:10.067Z,10.72
2022-09-26T06:21:09.953Z,10.70
2022-09-26T06:22:09.943Z,10.73
2022-09-26T06:23:09.943Z,10.73
2022-09-26T06:24:09.919Z,10.75
2022-09-26T06:25:09.908Z,10.75
2022-09-26T06:26:09.900Z,10.73
2022-09-26T06:27:09.879Z,10.73
2022-09-26T06:28:09.869Z,10.75
2022-09-26T06:29:09.894Z,10.76
2022-09-26T06:30:09.849Z,10.75
2022-09-26T06:31:09.962Z,10.75
2022-09-26T06:32:09.972Z,10.81
2022-09-26T06:33:09.816Z,10.83
2022-09-26T06:34:09.803Z,10.84
2022-09-26T06:35:09.792Z,10.87
2022-09-26T06:36:09.820Z,10.87
2022-09-26T06:37:09.765Z,10.87
2022-09-26T06:38:09.760Z,10.87
2022-09-26T06:39:09.808Z,10.88
2022-09-26T06:40:09.733Z,10.86
2022-09-26T06:41:09.723Z,10.86
2022-09-26T06:42:09.711Z,10.87
2022-09-26T06:43:09.704Z,10.87
2022-09-26T06:44:09.690Z,10.88
2022-09-26T06:45:09.680Z,10.90
2022-09-26T06:46:09.733Z,10.86
2022-09-26T06:47:09.699Z,10.86
2022-09-26T06:48:09.645Z,10.88
2022-09-26T06:49:09.729Z,10.88
2022-09-26T06:50:09.630Z,10.90
2022-09-26T06:51:09.607Z,10.91
2022-09-26T06:52:09.634Z,10.88
2022-09-26T06:53:09.593Z,10.90
2022-09-26T06:54:09.586Z,10.98
2022-09-26T06:55:09.570Z,10.95
2022-09-26T06:56:09.563Z,11.01
2022-09-26T06:57:14.768Z,11.05
2022-09-26T06:58:09.534Z,11.06
2022-09-26T06:59:09.622Z,11.06
2022-09-26T07:00:09.505Z,11.09
2022-09-26T07:01:09.674Z,11.08
2022-09-26T07:02:09.745Z,11.12
2022-09-26T07:03:09.469Z,11.16
2022-09-26T07:04:09.462Z,11.16
2022-09-26T07:05:09.449Z,11.16
2022-09-26T07:06:09.439Z,11.20
2022-09-26T07:07:09.444Z,11.21
2022-09-26T07:08:09.484Z,11.24
2022-09-26T07:09:12.180Z,11.21
2022-09-26T07:10:09.399Z,11.21
2022-09-26T07:11:31.151Z,11.21
2022-09-26T07:12:14.459Z,11.21
2022-09-26T07:13:09.358Z,11.24
2022-09-26T07:14:09.348Z,11.27
2022-09-26T07:15:09.332Z,11.31
2022-09-26T07:16:09.386Z,11.35
2022-09-26T07:17:09.343Z,11.38
2022-09-26T07:18:09.317Z,11.44
2022-09-26T07:19:09.364Z,11.45
2022-09-26T07:20:09.283Z,11.46
2022-09-26T07:21:09.283Z,11.49
2022-09-26T07:22:09.259Z,11.54
2022-09-26T07:23:09.250Z,11.60
2022-09-26T07:24:09.339Z,11.66
2022-09-26T07:25:09.232Z,11.67
2022-09-26T07:26:09.213Z,11.78
2022-09-26T07:27:09.202Z,11.79
2022-09-26T07:28:09.207Z,11.82
2022-09-26T07:29:09.210Z,11.82
2022-09-26T07:30:09.312Z,11.87
2022-09-26T07:31:09.185Z,11.88
2022-09-26T07:32:09.143Z,11.88
2022-09-26T07:33:09.135Z,11.84
2022-09-26T07:34:09.120Z,11.87
2022-09-26T07:35:09.110Z,11.88
2022-09-26T07:36:09.098Z,11.87
2022-09-26T07:37:09.089Z,11.87
2022-09-26T07:38:09.077Z,11.94
2022-09-26T07:39:09.131Z,11.97
2022-09-26T07:40:09.131Z,11.96
2022-09-26T07:41:09.098Z,12.07
2022-09-26T07:42:09.041Z,12.18
2022-09-26T07:43:19.807Z,12.12
2022-09-26T07:45:26.173Z,12.25
2022-09-26T07:46:10.266Z,12.26
2022-09-26T07:47:08.977Z,12.30
2022-09-26T07:48:08.963Z,12.38
2022-09-26T07:49:08.954Z,12.44
2022-09-26T07:50:08.951Z,12.46
2022-09-26T07:51:09.478Z,12.49
2022-09-26T07:52:08.920Z,12.54
2022-09-26T07:53:08.918Z,12.61
2022-09-26T07:54:08.934Z,12.63
2022-09-26T07:55:08.888Z,12.66
2022-09-26T07:56:08.907Z,12.66
2022-09-26T07:57:08.867Z,12.70
2022-09-26T07:58:08.853Z,12.80
2022-09-26T07:59:08.839Z,12.84
2022-09-26T08:00:08.849Z,12.95
2022-09-26T08:01:08.816Z,13.03
2022-09-26T08:02:09.035Z,13.06
2022-09-26T08:03:08.897Z,13.03
2022-09-26T08:04:08.975Z,13.09
2022-09-26T08:05:08.772Z,13.06
2022-09-26T08:06:08.760Z,13.12
2022-09-26T08:07:08.750Z,13.10
2022-09-26T08:08:08.743Z,13.12
2022-09-26T08:09:08.867Z,13.16
2022-09-26T08:10:08.739Z,13.09
2022-09-26T08:11:08.714Z,13.21
2022-09-26T08:12:08.711Z,13.17
2022-09-26T08:13:08.692Z,13.13
2022-09-26T08:14:08.701Z,13.12
2022-09-26T08:15:08.658Z,13.14
2022-09-26T08:16:08.700Z,13.19
2022-09-26T08:17:13.491Z,13.19
2022-09-26T08:18:08.632Z,13.17
2022-09-26T08:19:08.712Z,13.14
2022-09-26T08:20:08.621Z,13.22
2022-09-26T08:21:08.606Z,13.22
2022-09-26T08:22:08.577Z,13.31
2022-09-26T08:23:08.571Z,13.41
2022-09-26T08:24:08.556Z,13.46
2022-09-26T08:25:08.554Z,13.50
2022-09-26T08:26:08.538Z,13.50
2022-09-26T08:27:08.525Z,13.53
2022-09-26T08:28:08.546Z,13.47
2022-09-26T08:29:08.499Z,13.39
2022-09-26T08:30:08.546Z,13.39
2022-09-26T08:31:08.536Z,13.38
2022-09-26T08:32:08.466Z,13.36
2022-09-26T08:33:08.459Z,13.39
2022-09-26T08:34:08.545Z,13.36
2022-09-26T08:35:08.435Z,13.27
2022-09-26T08:36:08.422Z,13.24
2022-09-26T08:37:08.413Z,13.24
2022-09-26T08:38:08.401Z,13.25
2022-09-26T08:39:08.394Z,13.29
2022-09-26T08:40:08.382Z,13.24
2022-09-26T08:41:08.529Z,13.27
2022-09-26T08:42:08.355Z,13.22
2022-09-26T08:43:08.348Z,13.24
2022-09-26T08:44:08.354Z,13.19
2022-09-26T08:45:08.323Z,13.22
2022-09-26T08:46:08.584Z,13.28
2022-09-26T08:47:08.306Z,13.25
2022-09-26T08:48:08.283Z,13.28
2022-09-26T08:49:08.274Z,13.35
2022-09-26T08:50:08.261Z,13.36
2022-09-26T08:51:08.253Z,13.36
2022-09-26T08:52:08.261Z,13.35
2022-09-26T08:53:08.228Z,13.36
2022-09-26T08:54:08.217Z,13.31
2022-09-26T08:55:08.206Z,13.32
2022-09-26T08:56:08.192Z,13.28
2022-09-26T08:57:08.183Z,13.29
2022-09-26T08:58:08.168Z,13.31
2022-09-26T08:59:08.159Z,13.35
2022-09-26T09:00:08.168Z,13.31
2022-09-26T09:01:08.139Z,13.28
2022-09-26T09:02:08.291Z,13.32
2022-09-26T09:03:08.217Z,13.32
2022-09-26T09:04:08.121Z,13.35
2022-09-26T09:05:08.096Z,13.38
2022-09-26T09:06:08.077Z,13.41
2022-09-26T09:07:08.074Z,13.44
2022-09-26T09:08:08.084Z,13.48
2022-09-26T09:09:08.047Z,13.53
2022-09-26T09:10:08.036Z,13.50
2022-09-26T09:11:08.026Z,13.43
2022-09-26T09:12:08.089Z,13.50
2022-09-26T09:13:08.001Z,13.38
2022-09-26T09:14:07.992Z,13.41
2022-09-26T09:15:24.608Z,13.32
2022-09-26T09:16:09.047Z,13.35
2022-09-26T09:17:07.970Z,13.35
2022-09-26T09:18:13.231Z,13.39
2022-09-26T09:19:07.937Z,13.38
2022-09-26T09:20:07.923Z,13.39
2022-09-26T09:21:07.916Z,13.47
2022-09-26T09:22:07.898Z,13.47
2022-09-26T09:23:07.887Z,13.48
2022-09-26T09:24:07.875Z,13.39
2022-09-26T09:25:07.869Z,13.46
2022-09-26T09:28:08.776Z,13.46
2022-09-26T09:29:10.519Z,13.43
2022-09-26T09:30:15.881Z,13.47
2022-09-26T09:31:08.929Z,13.47
2022-09-26T09:32:07.814Z,13.50
2022-09-26T09:33:07.780Z,13.43
2022-09-26T09:34:07.770Z,13.44
2022-09-26T09:35:07.756Z,13.50
2022-09-26T09:36:07.750Z,13.53
2022-09-26T09:37:07.766Z,13.38
2022-09-26T09:38:07.745Z,13.43
2022-09-26T09:39:07.708Z,13.43
2022-09-26T09:40:07.694Z,13.36
2022-09-26T09:41:08.146Z,13.25
2022-09-26T09:42:07.674Z,13.25
2022-09-26T09:43:07.664Z,13.29
2022-09-26T09:44:07.648Z,13.35
2022-09-26T09:45:07.640Z,13.46
2022-09-26T09:46:07.687Z,13.50
2022-09-26T09:47:07.617Z,13.59
2022-09-26T09:48:07.628Z,13.62
2022-09-26T09:49:07.613Z,13.66
2022-09-26T09:50:07.587Z,13.59
2022-09-26T09:51:07.570Z,13.55
2022-09-26T09:52:07.561Z,13.39
2022-09-26T09:53:07.554Z,13.19
2022-09-26T09:54:07.538Z,13.12
2022-09-26T09:55:07.531Z,13.07
2022-09-26T09:56:07.513Z,13.10
2022-09-26T09:57:07.505Z,13.10
2022-09-26T09:58:07.491Z,13.12
2022-09-26T09:59:07.481Z,13.10
2022-09-26T10:00:07.496Z,13.10
2022-09-26T10:01:07.482Z,13.01
2022-09-26T10:02:07.446Z,13.03
2022-09-26T10:03:07.496Z,13.06
2022-09-26T10:04:07.455Z,13.07
2022-09-26T10:05:07.410Z,13.07
2022-09-26T10:06:43.934Z,13.10
2022-09-26T10:07:08.478Z,12.98
2022-09-26T10:08:07.378Z,12.99
2022-09-26T10:09:39.545Z,13.06
2022-09-26T10:10:08.384Z,13.13
2022-09-26T10:11:07.353Z,13.13
2022-09-26T10:12:07.367Z,13.14
2022-09-26T10:13:07.323Z,13.10
2022-09-26T10:14:07.306Z,13.09
2022-09-26T10:15:07.297Z,13.07
2022-09-26T10:16:07.450Z,13.17
2022-09-26T10:17:07.274Z,13.10
2022-09-26T10:18:24.202Z,13.04
2022-09-26T10:19:07.261Z,12.98
2022-09-26T10:20:07.265Z,12.95
2022-09-26T10:21:07.229Z,13.03
2022-09-26T10:22:07.219Z,12.94
2022-09-26T10:23:07.213Z,13.03
2022-09-26T10:24:07.211Z,13.07
2022-09-26T10:25:07.230Z,13.12
2022-09-26T10:26:07.221Z,13.13
2022-09-26T10:27:07.176Z,13.16
2022-09-26T10:28:07.149Z,13.27
2022-09-26T10:29:07.141Z,13.38
2022-09-26T10:30:07.129Z,13.38
2022-09-26T10:31:07.196Z,13.46
2022-09-26T10:32:07.103Z,13.50
2022-09-26T10:33:07.092Z,13.50
2022-09-26T10:34:07.154Z,13.48
2022-09-26T10:35:07.071Z,13.48
2022-09-26T10:36:07.087Z,13.51
2022-09-26T10:37:07.045Z,13.39
2022-09-26T10:38:07.032Z,13.27
2022-09-26T10:39:07.025Z,13.35
2022-09-26T10:40:07.021Z,13.47
2022-09-26T10:41:07.208Z,13.25
2022-09-26T10:42:07.287Z,13.25
2022-09-26T10:43:06.978Z,13.12
2022-09-26T10:44:07.029Z,13.09
2022-09-26T10:45:06.954Z,13.10
2022-09-26T10:46:06.999Z,13.14
2022-09-26T10:47:06.933Z,13.03
2022-09-26T10:48:06.928Z,13.07
2022-09-26T10:49:06.920Z,13.01
2022-09-26T10:50:06.898Z,13.10
2022-09-26T10:51:06.887Z,13.16
2022-09-26T10:52:06.900Z,13.04
2022-09-26T10:53:06.864Z,13.10
2022-09-26T10:54:06.903Z,13.21
2022-09-26T10:55:06.858Z,13.32
2022-09-26T10:56:07.011Z,13.31
2022-09-26T10:57:07.128Z,13.32
2022-09-26T10:58:11.356Z,13.41
2022-09-26T10:59:06.797Z,13.44
2022-09-26T11:00:06.790Z,13.48
2022-09-26T11:01:06.771Z,13.51
2022-09-26T11:02:06.825Z,13.57
2022-09-26T11:03:06.753Z,13.61
2022-09-26T11:04:06.855Z,13.59
2022-09-26T11:05:06.731Z,13.47
2022-09-26T11:06:06.713Z,13.51
2022-09-26T11:07:06.708Z,13.48
2022-09-26T11:08:06.719Z,13.41
2022-09-26T11:09:06.686Z,13.32
2022-09-26T11:10:06.819Z,13.19
2022-09-26T11:11:06.658Z,13.29
2022-09-26T11:12:06.830Z,13.16
2022-09-26T11:13:06.908Z,13.21
2022-09-26T11:14:06.642Z,13.12
2022-09-26T11:15:06.621Z,13.04
2022-09-26T11:16:06.682Z,12.98
2022-09-26T11:17:06.619Z,13.07
2022-09-26T11:18:06.733Z,13.13
2022-09-26T11:19:06.767Z,13.04
2022-09-26T11:20:06.687Z,13.04
2022-09-26T11:21:18.238Z,13.09
2022-09-26T11:22:08.607Z,13.03
2022-09-26T11:23:06.709Z,13.03
2022-09-26T11:24:06.866Z,13.04
2022-09-26T11:25:06.746Z,13.10
2022-09-26T11:26:06.775Z,13.19
2022-09-26T11:27:06.748Z,13.13
2022-09-26T11:28:06.885Z,13.13
2022-09-26T11:29:06.849Z,13.17
2022-09-26T11:30:06.489Z,13.17
2022-09-26T11:31:06.484Z,13.13
2022-09-26T11:32:06.461Z,13.21
2022-09-26T11:33:06.409Z,13.27
2022-09-26T11:34:06.479Z,13.29
2022-09-26T11:35:06.383Z,13.44
2022-09-26T11:36:06.376Z,13.54
2022-09-26T11:37:06.361Z,13.61
2022-09-26T11:38:06.349Z,13.54
2022-09-26T11:39:06.379Z,13.50
2022-09-26T11:40:09.841Z,13.55
2022-09-26T11:41:06.365Z,13.55
2022-09-26T11:42:06.302Z,13.47
2022-09-26T11:43:06.318Z,13.48
2022-09-26T11:44:06.374Z,13.50
2022-09-26T11:45:06.280Z,13.57
2022-09-26T11:46:06.331Z,13.59
2022-09-26T11:47:06.244Z,13.63
2022-09-26T11:48:06.240Z,13.71
2022-09-26T11:49:06.225Z,13.76
2022-09-26T11:50:06.213Z,13.73
2022-09-26T11:51:06.214Z,13.75
2022-09-26T11:52:06.204Z,13.71
2022-09-26T11:53:06.175Z,13.75
2022-09-26T11:54:06.228Z,13.73
2022-09-26T11:55:06.178Z,13.65
2022-09-26T11:56:06.168Z,13.57
2022-09-26T11:57:06.132Z,13.50
2022-09-26T11:58:06.123Z,13.41
2022-09-26T11:59:06.127Z,13.44
2022-09-26T12:00:06.129Z,13.43
2022-09-26T12:01:06.088Z,13.39
2022-09-26T12:02:06.078Z,13.32
2022-09-26T12:03:06.195Z,13.28
2022-09-26T12:04:06.182Z,13.22
2022-09-26T12:05:06.038Z,13.19
2022-09-26T12:06:06.028Z,13.21
2022-09-26T12:07:06.014Z,13.13
2022-09-26T12:08:06.008Z,13.12
2022-09-26T12:09:06.000Z,13.01
2022-09-26T12:10:05.987Z,12.92
2022-09-26T12:11:05.978Z,12.89
2022-09-26T12:12:05.987Z,12.94
2022-09-26T12:13:05.950Z,12.91
2022-09-26T12:14:05.942Z,12.84
2022-09-26T12:15:05.965Z,12.76
2022-09-26T12:16:05.999Z,12.77
2022-09-26T12:17:05.916Z,12.80
2022-09-26T12:18:05.915Z,12.76
2022-09-26T12:19:05.889Z,12.71
2022-09-26T12:20:05.884Z,12.76
2022-09-26T12:21:06.056Z,12.81
2022-09-26T12:22:05.854Z,12.81
2022-09-26T12:23:05.842Z,12.85
2022-09-26T12:24:05.834Z,12.80
2022-09-26T12:25:05.917Z,12.87
2022-09-26T12:26:05.810Z,12.85
2022-09-26T12:27:05.799Z,12.92
2022-09-26T12:28:05.811Z,12.94
2022-09-26T12:29:05.775Z,12.80
2022-09-26T12:30:05.766Z,12.87
2022-09-26T12:31:05.878Z,12.94
2022-09-26T12:32:05.789Z,12.89
2022-09-26T12:33:05.736Z,12.89
2022-09-26T12:34:05.733Z,12.94
2022-09-26T12:35:05.772Z,12.95
2022-09-26T12:36:05.697Z,12.95
2022-09-26T12:37:05.685Z,12.98
2022-09-26T12:38:05.677Z,12.98
2022-09-26T12:39:05.666Z,12.98
2022-09-26T12:40:05.686Z,12.88
2022-09-26T12:41:05.640Z,12.87
2022-09-26T12:42:05.628Z,12.84
2022-09-26T12:43:05.620Z,12.84
2022-09-26T12:44:05.628Z,12.79
2022-09-26T12:45:05.597Z,12.73
2022-09-26T12:46:05.681Z,12.71
2022-09-26T12:47:05.588Z,12.73
2022-09-26T12:48:05.583Z,12.70
2022-09-26T12:49:05.580Z,12.54
2022-09-26T12:50:05.556Z,12.49
2022-09-26T12:51:05.526Z,12.52
2022-09-26T12:52:05.524Z,12.52
2022-09-26T12:53:05.509Z,12.52
2022-09-26T12:54:05.542Z,12.49
2022-09-26T12:55:05.502Z,12.43
2022-09-26T12:56:05.477Z,12.36
2022-09-26T12:57:05.658Z,12.38
2022-09-26T12:58:05.452Z,12.46
2022-09-26T12:59:05.435Z,12.52
2022-09-26T13:00:05.459Z,12.51
2022-09-26T13:01:05.423Z,12.41
2022-09-26T13:02:05.524Z,12.38
2022-09-26T13:03:05.512Z,12.31
2022-09-26T13:04:05.388Z,12.26